Disclaimer

Please do not use the information listed here in-flight or in-navigation, as they are not provided to us by the airports but are provided by volunteers, so they might be outdated.

Search


Regions


Airport information page

Radio informations:
Tower (TWR) - 118.4 MHz
SAO PAULO OPS - 122.5 MHz
Ground (GND) - 121.7 MHz
Clearance delivery - 121.0 MHz
SAO PAULO APP - 119.8 MHz

Airport informations:
Latitude: 23° 25' 55.47" S
Longitude: 046° 28' 10.24" W
Elevation: 2459 feet - 750 meters
Operating hours: 24 hour operations
Operating agency: Military-civil joint use airport
Timezone: UTC-3(-2DT)
Fuel: Jet A1, without icing nhibitor.

Runway information:
09R/27L - 9843 x 148 feet< - >3000 x 45 meters
09L/27R - 12140 x 148 feet< - >3700 x 45 meters

Recent METARs:
SBGR 211700Z 10005KT 9999 SCT013 OVC019 20/17 Q1019
SBGR 211800Z 14006KT 9999 SCT013 OVC021 20/18 Q1019
SBGR 211800Z 14006KT 9999 SCT013 OVC021 20/18 Q1019

Airport on the map: